Αναφορές Αεροδρομίων

 

KSJC - San Jose, California, USA
Distance from station: ΒΑ 14km
Ενημερώθηκε: 18/09/2020 13:05
Συννεφιά
Συννεφιά
 Ανεμος από ΒΒΔ
Ανεμος: ΒΒΔ 11 km/h
Θερμοκρασία: 19°C
Σημείο Δρόσου: 15°C
Υγρασία: 78%
Βαρόμετρο: 1015.6 hPa
Clouds: Συννεφιά
Visibility: 16 km
Cloud details: Συννεφιά 457 m
2020/09/18 10:05 KSJC 181005Z AUTO 33006KT 10SM OVC015 19/15 A2999 RMK AO2 T01890150
KNUQ - Moffett Nas/Mtn, California, USA
Distance from station: Β 14km
Ενημερώθηκε: 18/09/2020 12:55
Συννεφιά
Συννεφιά
 Ανεμος από calm
Ανεμος: Απνοια
Θερμοκρασία: 18°C
Σημείο Δρόσου: 15°C
Υγρασία: 83%
Βαρόμετρο: 1015.6 hPa
Clouds: Συννεφιά
Visibility: 16 km
Cloud details: Συννεφιά 549 m
2020/09/18 09:55 KNUQ 180955Z AUTO 00000KT 10SM OVC018 18/15 A2999 RMK AO2
 
KPAO - Palo Alto, California, USA
Distance from station: ΒΒΔ 23km
Ενημερώθηκε: 18/09/2020 04:47
NOT Current
Αίθριος
Αίθριος
 Ανεμος από ΒΒΔ
Ανεμος: ΒΒΔ 15 km/h
Θερμοκρασία: 21°C
Σημείο Δρόσου: 16°C
Υγρασία: 73%
Βαρόμετρο: 1014.2 hPa
Clouds: Αίθριος
Visibility: 16 km
2020/09/18 01:47 KPAO 180147Z 33008KT 10SM SKC 21/16 A2995 RMK LAST
KRHV - San Jose/Reid, California, USA
Distance from station: ΑΒΑ 19km
Ενημερώθηκε: 18/09/2020 07:50
NOT Current
Μερικώς νεφελώδης
Μερικώς νεφελώδης
 Ανεμος από ΔΒΔ
Ανεμος: ΔΒΔ 11 km/h
Θερμοκρασία: 20°C
Σημείο Δρόσου: 15°C
Υγρασία: 73%
Βαρόμετρο: 1015.9 hPa
Clouds: Μερικώς νεφελώδης
Visibility: 16 km
Cloud details: Μερικώς νεφελώδης 2438 m
2020/09/18 04:50 KRHV 180450Z 29006KT 10SM SCT080 20/15 A3000 RMK LAST
 
KOAK - Oakland, California, USA
Distance from station: ΒΒΔ 50km
Ενημερώθηκε: 18/09/2020 12:53
Συννεφιά
Συννεφιά
 Ανεμος από Δ
Ανεμος: Δ 15 km/h
Θερμοκρασία: 19°C
Σημείο Δρόσου: 16°C
Υγρασία: 83%
Βαρόμετρο: 1015.9 hPa
Clouds: Συννεφιά
Visibility: 16 km
Cloud details: Few Clouds 244 m
Σχεδόν νεφελώδης 366 m
Συννεφιά 488 m
2020/09/18 09:53 KOAK 180953Z 27008KT 10SM FEW008 BKN012 OVC016 19/16 A3000 RMK AO2 SLP157 T01890161 $
KSQL - San Carlos Airpo, California, USA
Distance from station: ΒΔ 34km
Ενημερώθηκε: 18/09/2020 12:55
Συννεφιά
Συννεφιά
 Ανεμος από Δ
Ανεμος: Δ 6 km/h
Θερμοκρασία: 19°C
Σημείο Δρόσου: 16°C
Υγρασία: 83%
Βαρόμετρο: 1015.9 hPa
Clouds: Συννεφιά
Visibility: 16 km
Cloud details: Συννεφιά 518 m
2020/09/18 09:55 KSQL 180955Z AUTO 26003KT 10SM OVC017 19/16 A3000 RMK AO2
 
KSFO - San Francisco, California, USA
Distance from station: ΒΔ 49km
Ενημερώθηκε: 18/09/2020 12:56
Σχεδόν νεφελώδης
Σχεδόν νεφελώδης
 Ανεμος από calm
Ανεμος: Απνοια
Θερμοκρασία: 18°C
Σημείο Δρόσου: 16°C
Υγρασία: 88%
Βαρόμετρο: 1015.2 hPa
Clouds: Σχεδόν νεφελώδης
Visibility: 16 km
Cloud details: Few Clouds 183 m
Σχεδόν νεφελώδης 305 m
2020/09/18 09:56 KSFO 180956Z 00000KT 10SM FEW006 BKN010 18/16 A2998 RMK AO2 SLP153 T01780156 $
KE16 - San Martin, California, USA
Distance from station: ΑΝΑ 43km
Ενημερώθηκε: 18/09/2020 12:50
Σχεδόν νεφελώδης
Σχεδόν νεφελώδης
 Ανεμος από ΒΔ
Ανεμος: ΒΔ 11 km/h
Θερμοκρασία: 18°C
Σημείο Δρόσου: 15°C
Υγρασία: 83%
Βαρόμετρο: 1015.9 hPa
Clouds: Σχεδόν νεφελώδης
Visibility: 16 km
Cloud details: Σχεδόν νεφελώδης 396 m
2020/09/18 09:50 KE16 180950Z AUTO 32006KT 10SM BKN013 18/15 A3000 RMK AO2 PWINO PNO
 
KWVI - Watsonville, California, USA
Distance from station: ΝΝΑ 44km
Ενημερώθηκε: 18/09/2020 12:53
Αίθριος
Αίθριος
 Ανεμος από ΝΔ
Ανεμος: ΝΔ 6 km/h
Θερμοκρασία: 14°C
Σημείο Δρόσου: 13°C
Υγρασία: 94%
Βαρόμετρο: 1015.6 hPa
Clouds: Αίθριος
Visibility: 16 km
2020/09/18 09:53 KWVI 180953Z AUTO 22003KT 10SM CLR 14/13 A2999 RMK AO2 SLP153 T01440133
KHAF - Half Moon Bay, California, USA
Distance from station: ΔΒΔ 50km
Ενημερώθηκε: 18/09/2020 12:55
Συννεφιά
Συννεφιά
 Ανεμος από calm
Ανεμος: Απνοια
Θερμοκρασία: 16°C
Σημείο Δρόσου: 15°C
Υγρασία: 94%
Βαρόμετρο: 1015.9 hPa
Clouds: Συννεφιά
Visibility: 14 km
Cloud details: Συννεφιά 122 m
2020/09/18 09:55 KHAF 180955Z AUTO 00000KT 9SM OVC004 16/15 A3000 RMK AO2
 
KHWD - Hayward, California, USA
Distance from station: Β 44km
Ενημερώθηκε: 18/09/2020 12:54
Συννεφιά
Συννεφιά
 Ανεμος από ΔΒΔ
Ανεμος: ΔΒΔ 13 km/h
Θερμοκρασία: 19°C
Σημείο Δρόσου: 16°C
Υγρασία: 83%
Βαρόμετρο: 1015.6 hPa
Clouds: Συννεφιά
Visibility: 16 km
Cloud details: Συννεφιά 396 m
2020/09/18 09:54 KHWD 180954Z 29007KT 10SM OVC013 19/16 A2999 RMK AO2 SLP163 T01940156
KLVK - Livermore, California, USA
Distance from station: ΒΒΑ 51km
Ενημερώθηκε: 18/09/2020 12:53
Συννεφιά
Συννεφιά
 Ανεμος από ΔΝΔ
Ανεμος: ΔΝΔ 11 km/h
Θερμοκρασία: 18°C
Σημείο Δρόσου: 16°C
Υγρασία: 88%
Βαρόμετρο: 1015.2 hPa
Clouds: Συννεφιά
Visibility: 16 km
Cloud details: Συννεφιά 396 m
2020/09/18 09:53 KLVK 180953Z AUTO 25006KT 10SM OVC013 18/16 A2998 RMK AO2 SLP148 T01780156